createdAt,value
2018-07-12T00:02:14.119Z,101258.88
2018-07-12T00:04:41.191Z,101270.13
2018-07-12T00:07:08.258Z,101268.47
2018-07-12T00:09:35.346Z,101266.58
2018-07-12T00:12:02.402Z,101267.08
2018-07-12T00:14:29.538Z,101264.18
2018-07-12T00:16:56.757Z,101262.39
2018-07-12T00:19:23.829Z,101257.62
2018-07-12T00:21:50.897Z,101256.30
2018-07-12T00:24:17.973Z,101260.59
2018-07-12T00:26:45.130Z,101261.57
2018-07-12T00:29:12.208Z,101259.27
2018-07-12T00:31:39.270Z,101258.33
2018-07-12T00:34:06.341Z,101256.06
2018-07-12T00:36:33.413Z,101255.34
2018-07-12T00:39:00.482Z,101256.22
2018-07-12T00:41:27.554Z,101260.65
2018-07-12T00:43:54.622Z,101260.28
2018-07-12T00:46:21.692Z,101269.40
2018-07-12T00:48:48.753Z,101266.05
2018-07-12T00:51:15.840Z,101272.03
2018-07-12T00:53:42.905Z,101270.98
2018-07-12T00:56:09.971Z,101270.98
2018-07-12T00:58:37.041Z,101273.85
2018-07-12T01:01:04.118Z,101268.60
2018-07-12T01:03:31.190Z,101268.26
2018-07-12T01:05:58.261Z,101267.28
2018-07-12T01:08:25.327Z,101272.69
2018-07-12T01:10:52.397Z,101272.42
2018-07-12T01:13:19.462Z,101275.77
2018-07-12T01:15:46.548Z,101277.36
2018-07-12T01:18:13.627Z,101266.46
2018-07-12T01:20:40.710Z,101265.00
2018-07-12T01:23:07.792Z,101264.78
2018-07-12T01:25:34.863Z,101263.23
2018-07-12T01:28:01.930Z,101261.06
2018-07-12T01:30:28.998Z,101263.12
2018-07-12T01:32:56.117Z,101269.80
2018-07-12T01:35:23.189Z,101262.41
2018-07-12T01:37:50.265Z,101256.16
2018-07-12T01:40:17.346Z,101262.27
2018-07-12T01:42:44.474Z,101262.63
2018-07-12T01:45:11.687Z,101260.36
2018-07-12T01:47:38.757Z,101263.36
2018-07-12T01:50:06.110Z,101257.02
2018-07-12T01:52:33.177Z,101261.45
2018-07-12T01:55:00.247Z,101260.36
2018-07-12T01:57:27.635Z,101259.64
2018-07-12T01:59:54.698Z,101257.98
2018-07-12T02:02:21.953Z,101250.81
2018-07-12T02:04:49.027Z,101251.41
2018-07-12T02:07:16.095Z,101249.85
2018-07-12T02:09:43.157Z,101251.05
2018-07-12T02:12:10.218Z,101253.57
2018-07-12T02:14:37.301Z,101246.98
2018-07-12T02:17:04.584Z,101245.78
2018-07-12T02:19:31.645Z,101245.66
2018-07-12T02:21:58.723Z,101237.63
2018-07-12T02:24:25.789Z,101235.25
2018-07-12T02:26:52.877Z,101237.16
2018-07-12T02:29:19.939Z,101245.20
2018-07-12T02:31:47.001Z,101245.55
2018-07-12T02:34:14.061Z,101249.63
2018-07-12T02:36:41.134Z,101249.50
2018-07-12T02:39:08.201Z,101249.38
2018-07-12T02:41:35.267Z,101244.36
2018-07-12T02:44:02.333Z,101241.83
2018-07-12T02:46:29.406Z,101242.43
2018-07-12T02:48:56.478Z,101246.16
2018-07-12T02:51:23.554Z,101244.23
2018-07-12T02:53:50.639Z,101244.84
2018-07-12T02:56:17.696Z,101246.87
2018-07-12T02:58:44.770Z,101241.60
2018-07-12T03:01:11.839Z,101246.75
2018-07-12T03:03:38.913Z,101241.95
2018-07-12T03:06:05.995Z,101235.52
2018-07-12T03:08:33.314Z,101241.72
2018-07-12T03:11:00.789Z,101246.52
2018-07-12T03:13:28.126Z,101246.52
2018-07-12T03:15:55.234Z,101243.17
2018-07-12T03:18:22.301Z,101245.55
2018-07-12T03:20:49.376Z,101251.55
2018-07-12T03:23:16.445Z,101249.26
2018-07-12T03:25:43.506Z,101256.56
2018-07-12T03:28:10.578Z,101262.55
2018-07-12T03:30:37.757Z,101255.38
2018-07-12T03:33:04.828Z,101262.20
2018-07-12T03:35:31.925Z,101268.06
2018-07-12T03:37:59.206Z,101264.83
2018-07-12T03:40:26.343Z,101262.79
2018-07-12T03:42:53.342Z,101264.83
2018-07-12T03:45:20.667Z,101266.61
2018-07-12T03:47:47.911Z,101272.13
2018-07-12T03:50:14.983Z,101267.81
2018-07-12T03:52:42.152Z,101274.39
2018-07-12T03:55:09.221Z,101269.97
2018-07-12T03:57:36.289Z,101273.58
2018-07-12T04:00:04.469Z,101275.47
2018-07-12T04:02:31.537Z,101280.61
2018-07-12T04:04:58.601Z,101285.66
2018-07-12T04:07:25.705Z,101288.16
2018-07-12T04:09:52.978Z,101288.75
2018-07-12T04:12:20.090Z,101290.55
2018-07-12T04:14:47.182Z,101295.59
2018-07-12T04:17:24.353Z,101286.97
2018-07-12T04:19:51.550Z,101294.37
2018-07-12T04:22:18.618Z,101295.69
2018-07-12T04:24:45.673Z,101295.69
2018-07-12T04:27:12.742Z,101293.77
2018-07-12T04:29:40.111Z,101293.77
2018-07-12T04:32:07.173Z,101295.94
2018-07-12T04:34:34.261Z,101292.71
2018-07-12T04:37:01.357Z,101292.45
2018-07-12T04:39:28.417Z,101286.59
2018-07-12T04:41:55.750Z,101282.91
2018-07-12T04:44:23.309Z,101286.72
2018-07-12T04:46:50.382Z,101282.53
2018-07-12T04:49:17.575Z,101281.80
2018-07-12T04:51:44.659Z,101283.50
2018-07-12T04:54:11.912Z,101275.60
2018-07-12T04:56:38.977Z,101278.23
2018-07-12T04:59:06.074Z,101274.53
2018-07-12T05:01:33.176Z,101276.56
2018-07-12T05:04:00.400Z,101284.34
2018-07-12T05:06:27.475Z,101278.95
2018-07-12T05:08:54.797Z,101285.28
2018-07-12T05:11:22.513Z,101293.20
2018-07-12T05:13:50.044Z,101293.20
2018-07-12T05:16:17.133Z,101293.55
2018-07-12T05:18:44.178Z,101294.05
2018-07-12T05:21:11.250Z,101292.00
2018-07-12T05:23:38.329Z,101298.11
2018-07-12T05:26:05.454Z,101302.18
2018-07-12T05:28:32.647Z,101299.31
2018-07-12T05:30:59.791Z,101315.94
2018-07-12T05:33:27.223Z,101312.70
2018-07-12T05:35:55.309Z,101313.92
2018-07-12T05:38:23.378Z,101312.82
2018-07-12T05:40:51.526Z,101312.47
2018-07-12T05:43:19.567Z,101317.23
2018-07-12T05:45:48.182Z,101314.12
2018-07-12T05:48:16.281Z,101317.02
2018-07-12T05:50:47.197Z,101316.89
2018-07-12T05:53:16.133Z,101320.38
2018-07-12T05:55:44.245Z,101319.27
2018-07-12T05:58:12.584Z,101319.64
2018-07-12T06:00:41.505Z,101326.09
2018-07-12T06:03:09.793Z,101331.95
2018-07-12T06:05:37.994Z,101326.70
2018-07-12T06:08:06.059Z,101328.45
2018-07-12T06:10:34.634Z,101329.14
2018-07-12T06:13:02.726Z,101332.13
2018-07-12T06:15:30.893Z,101334.97
2018-07-12T06:17:59.049Z,101334.36
2018-07-12T06:20:27.109Z,101339.88
2018-07-12T06:22:55.153Z,101341.87
2018-07-12T06:25:23.207Z,101336.06
2018-07-12T06:27:51.268Z,101339.52
2018-07-12T06:30:19.350Z,101336.64
2018-07-12T06:32:47.402Z,101342.87
2018-07-12T06:35:15.471Z,101340.59
2018-07-12T06:37:43.566Z,101343.94
2018-07-12T06:40:11.613Z,101347.25
2018-07-12T06:42:39.899Z,101345.23
2018-07-12T06:45:08.241Z,101346.88
2018-07-12T06:47:36.281Z,101345.91
2018-07-12T06:50:04.867Z,101354.81
2018-07-12T06:52:32.921Z,101355.84
2018-07-12T06:55:01.152Z,101359.47
2018-07-12T06:57:29.555Z,101359.28
2018-07-12T06:59:57.748Z,101362.63
2018-07-12T07:02:26.066Z,101357.25
2018-07-12T07:04:54.219Z,101362.53
2018-07-12T07:07:22.353Z,101363.43
2018-07-12T07:09:50.417Z,101356.91
2018-07-12T07:12:18.473Z,101361.59
2018-07-12T07:14:46.675Z,101361.08
2018-07-12T07:17:14.910Z,101360.69
2018-07-12T07:19:42.961Z,101362.55
2018-07-12T07:22:11.043Z,101372.32
2018-07-12T07:24:39.103Z,101370.86
2018-07-12T07:27:07.305Z,101373.36
2018-07-12T07:29:35.457Z,101374.01
2018-07-12T07:32:03.889Z,101375.72
2018-07-12T07:34:31.928Z,101384.36
2018-07-12T07:37:00.284Z,101388.16
2018-07-12T07:39:28.313Z,101390.50
2018-07-12T07:41:56.595Z,101391.96
2018-07-12T07:44:24.623Z,101399.36
2018-07-12T07:46:52.669Z,101393.37
2018-07-12T07:49:20.767Z,101395.79
2018-07-12T07:51:48.905Z,101399.70
2018-07-12T07:54:16.922Z,101404.73
2018-07-12T07:56:44.996Z,101403.44
2018-07-12T07:59:13.029Z,101397.11
2018-07-12T08:01:41.218Z,101402.48
2018-07-12T08:04:09.269Z,101404.13
2018-07-12T08:06:37.288Z,101398.86
2018-07-12T08:09:06.436Z,101397.25
2018-07-12T08:11:34.516Z,101393.11
2018-07-12T08:14:02.544Z,101402.78
2018-07-12T08:16:30.566Z,101404.31
2018-07-12T08:18:58.587Z,101399.89
2018-07-12T08:21:26.619Z,101408.12
2018-07-12T08:23:56.886Z,101408.06
2018-07-12T08:26:30.437Z,101402.30
2018-07-12T08:28:58.580Z,101412.42
2018-07-12T08:31:26.609Z,101408.70
2018-07-12T08:33:54.712Z,101405.44
2018-07-12T08:36:22.724Z,101408.01
2018-07-12T08:38:50.748Z,101406.97
2018-07-12T08:41:18.929Z,101406.63
2018-07-12T08:43:46.952Z,101415.96
2018-07-12T08:46:14.999Z,101411.05
2018-07-12T08:48:43.021Z,101415.58
2018-07-12T08:51:13.365Z,101411.88
2018-07-12T08:53:41.405Z,101414.98
2018-07-12T08:56:09.517Z,101416.36
2018-07-12T08:58:37.571Z,101417.80
2018-07-12T09:01:05.854Z,101418.08
2018-07-12T09:03:33.885Z,101418.45
2018-07-12T09:06:01.925Z,101410.97
2018-07-12T09:08:30.109Z,101406.90
2018-07-12T09:10:58.158Z,101405.21
2018-07-12T09:13:26.180Z,101406.05
2018-07-12T09:15:54.213Z,101407.94
2018-07-12T09:18:22.541Z,101406.40
2018-07-12T09:20:50.604Z,101411.97
2018-07-12T09:23:18.661Z,101414.31
2018-07-12T09:25:46.702Z,101416.79
2018-07-12T09:28:16.465Z,101411.83
2018-07-12T09:30:44.708Z,101420.69
2018-07-12T09:33:12.709Z,101416.91
2018-07-12T09:35:41.716Z,101414.14
2018-07-12T09:38:22.618Z,101417.86
2018-07-12T09:40:50.691Z,101414.36
2018-07-12T09:43:18.726Z,101422.53
2018-07-12T09:45:46.782Z,101415.52
2018-07-12T09:48:14.869Z,101423.37
2018-07-12T09:50:42.888Z,101416.20
2018-07-12T09:53:10.951Z,101421.86
2018-07-12T09:55:51.618Z,101425.68
2018-07-12T09:58:26.673Z,101424.30
2018-07-12T10:01:00.266Z,101430.63
2018-07-12T10:03:33.612Z,101420.80
2018-07-12T10:06:01.811Z,101414.41
2018-07-12T10:08:35.111Z,101428.55
2018-07-12T10:11:07.247Z,101420.05
2018-07-12T10:13:40.726Z,101425.89
2018-07-12T10:16:14.279Z,101414.45
2018-07-12T10:18:42.349Z,101418.95
2018-07-12T10:21:10.408Z,101421.77
2018-07-12T10:23:38.695Z,101415.95
2018-07-12T10:26:06.896Z,101420.29
2018-07-12T10:28:35.150Z,101421.20
2018-07-12T10:31:03.306Z,101418.11
2018-07-12T10:33:31.381Z,101412.64
2018-07-12T10:35:59.460Z,101412.19
2018-07-12T10:38:27.532Z,101415.43
2018-07-12T10:40:55.589Z,101417.38
2018-07-12T10:43:23.640Z,101418.30
2018-07-12T10:45:51.745Z,101411.38
2018-07-12T10:48:19.818Z,101420.14
2018-07-12T10:50:47.870Z,101412.44
2018-07-12T10:53:16.054Z,101407.98
2018-07-12T10:55:44.073Z,101409.61
2018-07-12T10:58:12.398Z,101408.81
2018-07-12T11:00:40.469Z,101406.03
2018-07-12T11:03:08.578Z,101410.02
2018-07-12T11:05:36.620Z,101404.18
2018-07-12T11:08:05.022Z,101411.09
2018-07-12T11:10:33.378Z,101409.36
2018-07-12T11:13:18.092Z,101404.25
2018-07-12T11:15:46.894Z,101405.91
2018-07-12T11:18:15.024Z,101398.33
2018-07-12T11:20:43.132Z,101408.08
2018-07-12T11:23:11.232Z,101406.94
2018-07-12T11:25:39.616Z,101404.38
2018-07-12T11:28:07.721Z,101401.08
2018-07-12T11:30:35.758Z,101393.55
2018-07-12T11:33:16.793Z,101396.83
2018-07-12T11:35:44.840Z,101393.77
2018-07-12T11:38:12.891Z,101398.22
2018-07-12T11:40:41.161Z,101387.86
2018-07-12T11:43:09.347Z,101386.52
2018-07-12T11:45:37.418Z,101388.03
2018-07-12T11:48:05.889Z,101382.28
2018-07-12T11:50:33.944Z,101375.94
2018-07-12T11:53:02.023Z,101383.92
2018-07-12T11:55:30.029Z,101376.66
2018-07-12T11:57:58.068Z,101374.98
2018-07-12T12:00:26.126Z,101373.71
2018-07-12T12:02:54.192Z,101374.03
2018-07-12T12:05:22.248Z,101372.31
2018-07-12T12:07:50.381Z,101375.04
2018-07-12T12:10:18.433Z,101370.42
2018-07-12T12:12:46.504Z,101368.55
2018-07-12T12:15:14.516Z,101365.44
2018-07-12T12:17:42.608Z,101361.57
2018-07-12T12:20:10.658Z,101362.58
2018-07-12T12:22:38.702Z,101361.33
2018-07-12T12:25:06.759Z,101355.37
2018-07-12T12:27:35.035Z,101354.27
2018-07-12T12:30:03.212Z,101350.14
2018-07-12T12:32:31.353Z,101349.02
2018-07-12T12:34:59.449Z,101354.12
2018-07-12T12:37:27.489Z,101346.08
2018-07-12T12:39:55.530Z,101343.91
2018-07-12T12:42:23.568Z,101344.44
2018-07-12T12:44:51.621Z,101345.69
2018-07-12T12:47:19.637Z,101343.09
2018-07-12T12:49:47.689Z,101340.19
2018-07-12T12:52:15.846Z,101338.52
2018-07-12T12:54:44.197Z,101332.00
2018-07-12T12:57:12.274Z,101334.47
2018-07-12T12:59:40.358Z,101331.42
2018-07-12T13:02:08.429Z,101337.19
2018-07-12T13:04:36.597Z,101330.05
2018-07-12T13:07:04.989Z,101331.09
2018-07-12T13:09:33.049Z,101327.19
2018-07-12T13:12:01.141Z,101323.92
2018-07-12T13:14:29.228Z,101323.98
2018-07-12T13:16:57.261Z,101318.37
2018-07-12T13:19:25.334Z,101329.93
2018-07-12T13:21:53.481Z,101330.61
2018-07-12T13:24:21.571Z,101330.57
2018-07-12T13:26:49.685Z,101331.46
2018-07-12T13:29:17.733Z,101329.56
2018-07-12T13:31:45.766Z,101331.20
2018-07-12T13:34:14.072Z,101325.15
2018-07-12T13:36:42.417Z,101327.48
2018-07-12T13:39:10.902Z,101339.02
2018-07-12T13:41:38.977Z,101337.75
2018-07-12T13:44:19.917Z,101331.56
2018-07-12T13:46:49.085Z,101331.91
2018-07-12T13:49:17.416Z,101323.39
2018-07-12T13:51:47.024Z,101333.58
2018-07-12T13:54:15.305Z,101331.16
2018-07-12T13:56:43.356Z,101335.95
2018-07-12T13:59:11.530Z,101340.33
2018-07-12T14:01:39.567Z,101336.95
2018-07-12T14:04:08.912Z,101329.33
2018-07-12T14:06:37.010Z,101328.55
2018-07-12T14:09:07.013Z,101325.23
2018-07-12T14:11:35.185Z,101318.11
2018-07-12T14:14:03.374Z,101317.63
2018-07-12T14:16:31.437Z,101320.94
2018-07-12T14:18:59.516Z,101323.49
2018-07-12T14:21:27.521Z,101320.17
2018-07-12T14:23:55.682Z,101330.33
2018-07-12T14:26:23.886Z,101321.71
2018-07-12T14:28:52.105Z,101323.05
2018-07-12T14:31:20.161Z,101322.41
2018-07-12T14:33:48.536Z,101319.67
2018-07-12T14:36:16.573Z,101319.80
2018-07-12T14:38:44.610Z,101309.80
2018-07-12T14:41:12.887Z,101311.89
2018-07-12T14:43:40.949Z,101312.27
2018-07-12T14:46:09.117Z,101310.63
2018-07-12T14:48:37.149Z,101309.43
2018-07-12T14:51:05.185Z,101306.35
2018-07-12T14:53:33.274Z,101304.61
2018-07-12T14:56:01.403Z,101299.23
2018-07-12T14:58:29.546Z,101298.09
2018-07-12T15:00:57.576Z,101299.22
2018-07-12T15:03:25.705Z,101296.33
2018-07-12T15:05:53.744Z,101304.86
2018-07-12T15:08:21.765Z,101296.36
2018-07-12T15:10:50.113Z,101295.63
2018-07-12T15:13:18.397Z,101303.12
2018-07-12T15:15:46.553Z,101297.72
2018-07-12T15:18:14.788Z,101297.47
2018-07-12T15:20:43.088Z,101300.69
2018-07-12T15:23:11.137Z,101300.39
2018-07-12T15:25:39.258Z,101299.42
2018-07-12T15:28:07.404Z,101293.92
2018-07-12T15:30:35.409Z,101293.41
2018-07-12T15:33:03.445Z,101289.62
2018-07-12T15:35:31.532Z,101295.63
2018-07-12T15:37:59.601Z,101295.72
2018-07-12T15:40:27.646Z,101289.35
2018-07-12T15:42:55.685Z,101293.98
2018-07-12T15:45:23.817Z,101292.40
2018-07-12T15:47:51.901Z,101300.82
2018-07-12T15:50:21.136Z,101301.72
2018-07-12T15:52:49.546Z,101289.83
2018-07-12T15:55:17.586Z,101296.25
2018-07-12T15:57:45.715Z,101291.06
2018-07-12T16:00:13.793Z,101301.30
2018-07-12T16:03:01.012Z,101302.07
2018-07-12T16:05:29.103Z,101298.27
2018-07-12T16:10:50.422Z,101298.16
2018-07-12T16:13:18.497Z,101302.91
2018-07-12T16:15:46.750Z,101294.13
2018-07-12T16:18:14.962Z,101298.45
2018-07-12T16:20:43.193Z,101290.68
2018-07-12T16:23:11.222Z,101295.27
2018-07-12T16:25:39.276Z,101288.27
2018-07-12T16:28:07.318Z,101294.00
2018-07-12T16:30:35.352Z,101293.49
2018-07-12T16:33:03.488Z,101297.47
2018-07-12T16:35:31.493Z,101297.30
2018-07-12T16:37:59.552Z,101294.09
2018-07-12T16:40:27.584Z,101291.03
2018-07-12T16:42:55.626Z,101292.72
2018-07-12T16:45:23.660Z,101290.73
2018-07-12T16:47:51.708Z,101291.73
2018-07-12T16:50:19.737Z,101287.94
2018-07-12T16:52:47.778Z,101289.61
2018-07-12T16:55:15.817Z,101285.31
2018-07-12T16:57:43.958Z,101296.91
2018-07-12T17:00:12.133Z,101294.93
2018-07-12T17:02:40.737Z,101295.63
2018-07-12T17:05:08.825Z,101296.77
2018-07-12T17:07:36.990Z,101296.22
2018-07-12T17:10:05.029Z,101295.30
2018-07-12T17:12:33.325Z,101294.86
2018-07-12T17:15:02.218Z,101297.18
2018-07-12T17:17:30.245Z,101299.25
2018-07-12T17:19:58.452Z,101307.39
2018-07-12T17:22:26.647Z,101301.09
2018-07-12T17:24:54.677Z,101308.51
2018-07-12T17:27:22.736Z,101305.99
2018-07-12T17:29:51.045Z,101308.81
2018-07-12T17:32:19.104Z,101310.20
2018-07-12T17:34:47.376Z,101314.14
2018-07-12T17:37:15.412Z,101309.68
2018-07-12T17:39:43.441Z,101317.77
2018-07-12T17:42:12.082Z,101322.58
2018-07-12T17:44:44.084Z,101319.67
2018-07-12T17:47:12.793Z,101325.48
2018-07-12T17:49:41.345Z,101331.55
2018-07-12T17:52:10.442Z,101328.67
2018-07-12T17:54:39.284Z,101331.77
2018-07-12T17:57:07.823Z,101338.85
2018-07-12T17:59:36.360Z,101333.42
2018-07-12T18:02:04.527Z,101342.36
2018-07-12T18:04:32.595Z,101335.78
2018-07-12T18:07:00.638Z,101338.17
2018-07-12T18:09:29.551Z,101339.20
2018-07-12T18:11:57.585Z,101341.84
2018-07-12T18:14:25.728Z,101345.02
2018-07-12T18:16:53.932Z,101338.98
2018-07-12T18:19:21.975Z,101343.99
2018-07-12T18:21:51.318Z,101344.48
2018-07-12T18:24:19.684Z,101344.95
2018-07-12T18:26:47.950Z,101343.58
2018-07-12T18:29:16.077Z,101344.57
2018-07-12T18:31:44.954Z,101341.25
2018-07-12T18:34:13.010Z,101343.99
2018-07-12T18:36:41.078Z,101349.87
2018-07-12T18:39:09.902Z,101348.72
2018-07-12T18:41:38.210Z,101357.95
2018-07-12T18:44:06.276Z,101357.05
2018-07-12T18:46:34.349Z,101358.22
2018-07-12T18:49:02.401Z,101364.92
2018-07-12T18:51:32.617Z,101373.22
2018-07-12T18:54:00.702Z,101371.27
2018-07-12T18:56:28.957Z,101373.10
2018-07-12T18:58:57.416Z,101375.32
2018-07-12T19:01:25.482Z,101378.24
2018-07-12T19:03:53.981Z,101380.40
2018-07-12T19:06:22.058Z,101380.38
2018-07-12T19:08:50.926Z,101382.96
2018-07-12T19:11:19.015Z,101391.80
2018-07-12T19:13:47.762Z,101396.19
2018-07-12T19:16:16.130Z,101398.20
2018-07-12T19:18:44.177Z,101393.70
2018-07-12T19:21:12.225Z,101402.70
2018-07-12T19:23:40.277Z,101403.37
2018-07-12T19:26:08.322Z,101405.03
2018-07-12T19:28:42.229Z,101411.52
2018-07-12T19:31:11.182Z,101413.52
2018-07-12T19:33:39.535Z,101412.53
2018-07-12T19:36:08.186Z,101413.85
2018-07-12T19:38:36.567Z,101419.84
2018-07-12T19:41:04.867Z,101422.48
2018-07-12T19:43:32.902Z,101427.92
2018-07-12T19:46:01.402Z,101426.89
2018-07-12T19:48:29.685Z,101436.02
2018-07-12T19:50:57.729Z,101433.02
2018-07-12T19:53:25.930Z,101434.33
2018-07-12T19:55:53.992Z,101440.80
2018-07-12T19:58:22.101Z,101451.06
2018-07-12T20:00:50.144Z,101456.48
2018-07-12T20:03:18.528Z,101455.30
2018-07-12T20:05:46.761Z,101457.59
2018-07-12T20:08:14.814Z,101467.72
2018-07-12T20:10:43.344Z,101466.05
2018-07-12T20:13:12.010Z,101467.45
2018-07-12T20:15:40.439Z,101468.92
2018-07-12T20:18:08.825Z,101467.89
2018-07-12T20:20:37.218Z,101472.80
2018-07-12T20:23:06.134Z,101470.66
2018-07-12T20:25:35.152Z,101471.79
2018-07-12T20:28:03.197Z,101470.88
2018-07-12T20:30:31.236Z,101470.66
2018-07-12T20:32:59.994Z,101469.23
2018-07-12T20:35:28.313Z,101474.37
2018-07-12T20:37:56.331Z,101470.84
2018-07-12T20:40:24.463Z,101471.13
2018-07-12T20:42:52.489Z,101473.42
2018-07-12T20:45:20.516Z,101477.17
2018-07-12T20:47:48.553Z,101479.88
2018-07-12T20:50:16.581Z,101482.49
2018-07-12T20:52:44.833Z,101484.47
2018-07-12T20:55:12.885Z,101490.38
2018-07-12T20:57:40.933Z,101492.47
2018-07-12T21:00:08.972Z,101492.27
2018-07-12T21:02:37.009Z,101492.91
2018-07-12T21:05:05.046Z,101493.88
2018-07-12T21:07:33.229Z,101497.81
2018-07-12T21:10:01.932Z,101497.64
2018-07-12T21:12:29.955Z,101508.21
2018-07-12T21:14:58.027Z,101500.27
2018-07-12T21:17:26.059Z,101500.09
2018-07-12T21:19:54.828Z,101504.16
2018-07-12T21:22:23.001Z,101504.41
2018-07-12T21:24:51.039Z,101506.38
2018-07-12T21:27:19.681Z,101511.48
2018-07-12T21:29:47.716Z,101504.22
2018-07-12T21:32:15.733Z,101510.11
2018-07-12T21:34:43.767Z,101507.34
2018-07-12T21:37:11.796Z,101512.11
2018-07-12T21:39:39.817Z,101511.14
2018-07-12T21:42:07.857Z,101518.71
2018-07-12T21:44:35.899Z,101514.79
2018-07-12T21:47:05.189Z,101519.55
2018-07-12T21:49:33.212Z,101518.25
2018-07-12T21:52:01.674Z,101520.63
2018-07-12T21:54:29.764Z,101522.03
2018-07-12T21:56:57.801Z,101525.25
2018-07-12T21:59:26.130Z,101528.50
2018-07-12T22:01:54.421Z,101525.20
2018-07-12T22:04:22.437Z,101528.30
2018-07-12T22:07:04.609Z,101527.93
2018-07-12T22:09:32.837Z,101535.36
2018-07-12T22:12:00.895Z,101533.30
2018-07-12T22:14:28.929Z,101533.55
2018-07-12T22:16:56.962Z,101531.53
2018-07-12T22:19:24.991Z,101534.47
2018-07-12T22:21:53.022Z,101539.17
2018-07-12T22:24:21.061Z,101535.27
2018-07-12T22:26:49.345Z,101531.91
2018-07-12T22:29:17.368Z,101536.37
2018-07-12T22:31:45.409Z,101536.88
2018-07-12T22:34:13.433Z,101540.48
2018-07-12T22:36:41.481Z,101536.52
2018-07-12T22:39:09.501Z,101539.64
2018-07-12T22:41:37.532Z,101544.05
2018-07-12T22:44:05.757Z,101539.28
2018-07-12T22:46:33.777Z,101541.63
2018-07-12T22:49:01.939Z,101537.79
2018-07-12T22:51:29.840Z,101542.80
2018-07-12T22:53:57.856Z,101535.59
2018-07-12T22:56:25.880Z,101538.35
2018-07-12T22:58:53.904Z,101539.72
2018-07-12T23:01:21.945Z,101535.77
2018-07-12T23:03:49.961Z,101536.72
2018-07-12T23:06:18.003Z,101541.69
2018-07-12T23:08:46.014Z,101544.09
2018-07-12T23:11:14.311Z,101540.89
2018-07-12T23:13:42.340Z,101543.58
2018-07-12T23:16:10.357Z,101536.59
2018-07-12T23:18:38.388Z,101543.25
2018-07-12T23:21:06.597Z,101544.34
2018-07-12T23:23:34.624Z,101537.63
2018-07-12T23:26:02.658Z,101534.05
2018-07-12T23:28:30.697Z,101531.64
2018-07-12T23:30:58.720Z,101533.04
2018-07-12T23:33:26.749Z,101540.30
2018-07-12T23:35:54.798Z,101534.59
2018-07-12T23:38:22.828Z,101534.05
2018-07-12T23:40:50.858Z,101535.27
2018-07-12T23:43:18.895Z,101532.27
2018-07-12T23:45:46.928Z,101538.29
2018-07-12T23:48:14.963Z,101540.34
2018-07-12T23:50:42.994Z,101541.45
2018-07-12T23:53:11.026Z,101533.90
2018-07-12T23:55:39.053Z,101541.94
2018-07-12T23:58:07.098Z,101540.96
